Victor, Iowa
Current Conditions -  °F | °C
As of 7:35 PM on Friday 24 Oct 2014 (Local Time) from KGGI Reporting Station
Haze Haze  
Wind Chill: 60°   Ceiling: 1000
Heat Index: 60°   Visibility: 5mi
Dew Point: 58°   Wind: 5mph
Humidity: 93%   Direction: 210°SSW
Pressure: 29.94"   Gusts: NA
Location:  41.73°N, 92.3°W
Report Text: KGGI 250035Z AUTO 21004KT 5SM BR BKN010 OVC013 16/15 A2994 RMK AO2 T01580146
Loading
Personal Weather Stations






























Interactive Weather Map
Tropical Storm Tracking
New forecast layout! Learn more

10-Day Weather Forecast

Advertisements
Track Severe Weather on mobile